sensor_id;sensor_type;location;lat;lon;timestamp;P1;durP1;ratioP1;P2;durP2;ratioP2
60292;SDS011;52402;52.670;6.750;2023-04-25T00:02:31;17.90;;;5.70;;
60292;SDS011;52402;52.670;6.750;2023-04-25T00:05:10;20.33;;;5.68;;
60292;SDS011;52402;52.670;6.750;2023-04-25T00:07:42;15.85;;;4.78;;
60292;SDS011;52402;52.670;6.750;2023-04-25T00:10:17;19.88;;;5.70;;
60292;SDS011;52402;52.670;6.750;2023-04-25T00:12:48;15.55;;;5.53;;
60292;SDS011;52402;52.670;6.750;2023-04-25T00:15:38;15.00;;;5.55;;
60292;SDS011;52402;52.670;6.750;2023-04-25T00:18:28;17.35;;;5.55;;
60292;SDS011;52402;52.670;6.750;2023-04-25T00:21:05;16.17;;;5.40;;
60292;SDS011;52402;52.670;6.750;2023-04-25T00:23:42;18.35;;;5.18;;
60292;SDS011;52402;52.670;6.750;2023-04-25T00:26:21;16.98;;;5.68;;
60292;SDS011;52402;52.670;6.750;2023-04-25T00:28:49;12.15;;;4.95;;
60292;SDS011;52402;52.670;6.750;2023-04-25T00:34:07;15.27;;;5.13;;
60292;SDS011;52402;52.670;6.750;2023-04-25T00:36:48;13.35;;;4.97;;
60292;SDS011;52402;52.670;6.750;2023-04-25T00:39:32;13.40;;;4.57;;
60292;SDS011;52402;52.670;6.750;2023-04-25T00:42:17;13.65;;;4.82;;
60292;SDS011;52402;52.670;6.750;2023-04-25T00:44:50;15.25;;;4.90;;
60292;SDS011;52402;52.670;6.750;2023-04-25T00:50:17;18.58;;;5.22;;
60292;SDS011;52402;52.670;6.750;2023-04-25T00:55:37;14.32;;;5.20;;
60292;SDS011;52402;52.670;6.750;2023-04-25T01:00:53;13.93;;;6.25;;
60292;SDS011;52402;52.670;6.750;2023-04-25T01:03:26;18.27;;;6.45;;
60292;SDS011;52402;52.670;6.750;2023-04-25T01:06:08;14.38;;;6.20;;
60292;SDS011;52402;52.670;6.750;2023-04-25T01:08:44;14.15;;;5.53;;
60292;SDS011;52402;52.670;6.750;2023-04-25T01:11:28;13.35;;;4.90;;
60292;SDS011;52402;52.670;6.750;2023-04-25T01:13:58;12.50;;;5.20;;
60292;SDS011;52402;52.670;6.750;2023-04-25T01:19:05;13.43;;;5.00;;
60292;SDS011;52402;52.670;6.750;2023-04-25T01:21:45;12.50;;;3.97;;
60292;SDS011;52402;52.670;6.750;2023-04-25T01:24:23;9.60;;;3.72;;
60292;SDS011;52402;52.670;6.750;2023-04-25T01:27:00;13.23;;;4.03;;
60292;SDS011;52402;52.670;6.750;2023-04-25T01:29:39;13.50;;;4.07;;
60292;SDS011;52402;52.670;6.750;2023-04-25T01:32:14;10.50;;;4.25;;
60292;SDS011;52402;52.670;6.750;2023-04-25T01:34:48;10.95;;;3.70;;
60292;SDS011;52402;52.670;6.750;2023-04-25T01:37:36;14.95;;;5.07;;
60292;SDS011;52402;52.670;6.750;2023-04-25T01:43:17;11.02;;;4.40;;
60292;SDS011;52402;52.670;6.750;2023-04-25T01:45:55;14.33;;;5.00;;
60292;SDS011;52402;52.670;6.750;2023-04-25T01:48:33;11.32;;;4.68;;
60292;SDS011;52402;52.670;6.750;2023-04-25T01:51:12;12.27;;;4.20;;
60292;SDS011;52402;52.670;6.750;2023-04-25T01:53:43;15.98;;;4.55;;
60292;SDS011;52402;52.670;6.750;2023-04-25T01:56:29;9.82;;;3.78;;
60292;SDS011;52402;52.670;6.750;2023-04-25T01:59:22;11.18;;;4.15;;
60292;SDS011;52402;52.670;6.750;2023-04-25T02:07:24;10.65;;;4.53;;
60292;SDS011;52402;52.670;6.750;2023-04-25T02:09:57;11.98;;;4.35;;
60292;SDS011;52402;52.670;6.750;2023-04-25T02:13:02;14.43;;;4.88;;
60292;SDS011;52402;52.670;6.750;2023-04-25T02:15:38;14.82;;;4.90;;
60292;SDS011;52402;52.670;6.750;2023-04-25T02:18:08;13.18;;;5.13;;
60292;SDS011;52402;52.670;6.750;2023-04-25T02:20:46;11.73;;;5.32;;
60292;SDS011;52402;52.670;6.750;2023-04-25T02:23:29;13.05;;;4.80;;
60292;SDS011;52402;52.670;6.750;2023-04-25T02:26:12;11.25;;;4.90;;
60292;SDS011;52402;52.670;6.750;2023-04-25T02:28:53;11.45;;;4.45;;
60292;SDS011;52402;52.670;6.750;2023-04-25T02:31:53;13.07;;;5.15;;
60292;SDS011;52402;52.670;6.750;2023-04-25T02:34:21;18.38;;;4.85;;
60292;SDS011;52402;52.670;6.750;2023-04-25T02:36:58;10.27;;;4.30;;
60292;SDS011;52402;52.670;6.750;2023-04-25T02:39:31;14.25;;;4.53;;
60292;SDS011;52402;52.670;6.750;2023-04-25T02:42:01;16.05;;;5.15;;
60292;SDS011;52402;52.670;6.750;2023-04-25T02:44:30;13.30;;;4.95;;
60292;SDS011;52402;52.670;6.750;2023-04-25T02:47:10;14.68;;;4.55;;
60292;SDS011;52402;52.670;6.750;2023-04-25T02:50:09;11.80;;;3.92;;
60292;SDS011;52402;52.670;6.750;2023-04-25T02:52:47;8.70;;;3.92;;
60292;SDS011;52402;52.670;6.750;2023-04-25T02:55:17;8.15;;;3.97;;
60292;SDS011;52402;52.670;6.750;2023-04-25T02:57:58;13.15;;;4.30;;
60292;SDS011;52402;52.670;6.750;2023-04-25T03:06:00;13.07;;;3.70;;
60292;SDS011;52402;52.670;6.750;2023-04-25T03:08:28;13.98;;;4.00;;
60292;SDS011;52402;52.670;6.750;2023-04-25T03:11:03;15.40;;;3.33;;
60292;SDS011;52402;52.670;6.750;2023-04-25T03:13:33;14.40;;;4.10;;
60292;SDS011;52402;52.670;6.750;2023-04-25T03:16:04;13.55;;;3.67;;
60292;SDS011;52402;52.670;6.750;2023-04-25T03:18:49;12.45;;;3.00;;
60292;SDS011;52402;52.670;6.750;2023-04-25T03:21:32;12.93;;;3.10;;
60292;SDS011;52402;52.670;6.750;2023-04-25T03:24:10;10.88;;;3.47;;
60292;SDS011;52402;52.670;6.750;2023-04-25T03:26:51;8.65;;;2.70;;
60292;SDS011;52402;52.670;6.750;2023-04-25T03:29:32;9.07;;;3.00;;
60292;SDS011;52402;52.670;6.750;2023-04-25T03:32:02;11.82;;;3.40;;
60292;SDS011;52402;52.670;6.750;2023-04-25T03:34:32;10.80;;;2.72;;
60292;SDS011;52402;52.670;6.750;2023-04-25T03:40:17;9.95;;;3.28;;
60292;SDS011;52402;52.670;6.750;2023-04-25T03:42:43;9.90;;;2.95;;
60292;SDS011;52402;52.670;6.750;2023-04-25T03:45:26;9.15;;;2.67;;
60292;SDS011;52402;52.670;6.750;2023-04-25T03:48:08;6.30;;;1.92;;
60292;SDS011;52402;52.670;6.750;2023-04-25T03:50:47;11.63;;;3.10;;
60292;SDS011;52402;52.670;6.750;2023-04-25T03:53:27;9.48;;;2.38;;
60292;SDS011;52402;52.670;6.750;2023-04-25T03:56:18;6.85;;;2.10;;
60292;SDS011;52402;52.670;6.750;2023-04-25T03:58:54;7.68;;;2.25;;
60292;SDS011;52402;52.670;6.750;2023-04-25T04:01:28;11.10;;;2.88;;
60292;SDS011;52402;52.670;6.750;2023-04-25T04:04:05;10.13;;;2.45;;
60292;SDS011;52402;52.670;6.750;2023-04-25T04:06:46;8.07;;;2.35;;
60292;SDS011;52402;52.670;6.750;2023-04-25T04:09:23;7.03;;;2.22;;
60292;SDS011;52402;52.670;6.750;2023-04-25T04:12:02;2.67;;;1.20;;
60292;SDS011;52402;52.670;6.750;2023-04-25T04:14:54;4.47;;;1.80;;
60292;SDS011;52402;52.670;6.750;2023-04-25T04:17:23;3.50;;;1.25;;
60292;SDS011;52402;52.670;6.750;2023-04-25T04:19:53;3.53;;;1.65;;
60292;SDS011;52402;52.670;6.750;2023-04-25T04:22:22;2.90;;;1.30;;
60292;SDS011;52402;52.670;6.750;2023-04-25T04:25:04;8.02;;;1.80;;
60292;SDS011;52402;52.670;6.750;2023-04-25T04:27:39;3.67;;;1.35;;
60292;SDS011;52402;52.670;6.750;2023-04-25T04:30:20;5.72;;;1.52;;
60292;SDS011;52402;52.670;6.750;2023-04-25T04:36:06;6.80;;;2.22;;
60292;SDS011;52402;52.670;6.750;2023-04-25T04:38:53;5.88;;;1.67;;
60292;SDS011;52402;52.670;6.750;2023-04-25T04:41:50;8.90;;;1.90;;
60292;SDS011;52402;52.670;6.750;2023-04-25T04:44:26;5.45;;;1.80;;
60292;SDS011;52402;52.670;6.750;2023-04-25T04:47:15;7.72;;;2.25;;
60292;SDS011;52402;52.670;6.750;2023-04-25T04:49:59;9.30;;;2.60;;
60292;SDS011;52402;52.670;6.750;2023-04-25T04:52:46;8.50;;;2.20;;
60292;SDS011;52402;52.670;6.750;2023-04-25T04:55:21;6.22;;;2.00;;
60292;SDS011;52402;52.670;6.750;2023-04-25T04:57:59;4.75;;;1.63;;
60292;SDS011;52402;52.670;6.750;2023-04-25T05:00:46;8.88;;;2.30;;
60292;SDS011;52402;52.670;6.750;2023-04-25T05:03:30;8.38;;;2.50;;
60292;SDS011;52402;52.670;6.750;2023-04-25T05:06:08;6.63;;;2.40;;
60292;SDS011;52402;52.670;6.750;2023-04-25T05:08:41;9.18;;;2.30;;
60292;SDS011;52402;52.670;6.750;2023-04-25T05:14:13;12.13;;;2.20;;
60292;SDS011;52402;52.670;6.750;2023-04-25T05:16:49;7.20;;;2.30;;
60292;SDS011;52402;52.670;6.750;2023-04-25T05:22:00;7.90;;;2.20;;
60292;SDS011;52402;52.670;6.750;2023-04-25T05:24:36;8.80;;;2.22;;
60292;SDS011;52402;52.670;6.750;2023-04-25T05:27:04;7.93;;;2.28;;
60292;SDS011;52402;52.670;6.750;2023-04-25T05:29:51;8.68;;;2.60;;
60292;SDS011;52402;52.670;6.750;2023-04-25T05:32:19;10.50;;;2.60;;
60292;SDS011;52402;52.670;6.750;2023-04-25T05:34:58;11.57;;;2.65;;
60292;SDS011;52402;52.670;6.750;2023-04-25T05:37:48;10.02;;;2.70;;
60292;SDS011;52402;52.670;6.750;2023-04-25T05:40:31;10.65;;;2.63;;
60292;SDS011;52402;52.670;6.750;2023-04-25T05:46:31;9.90;;;3.97;;
60292;SDS011;52402;52.670;6.750;2023-04-25T05:49:13;7.80;;;2.40;;
60292;SDS011;52402;52.670;6.750;2023-04-25T05:52:00;6.78;;;2.75;;
60292;SDS011;52402;52.670;6.750;2023-04-25T05:57:25;10.35;;;2.35;;
60292;SDS011;52402;52.670;6.750;2023-04-25T06:00:02;10.95;;;2.78;;
60292;SDS011;52402;52.670;6.750;2023-04-25T06:05:23;9.80;;;2.45;;
60292;SDS011;52402;52.670;6.750;2023-04-25T06:07:53;10.15;;;2.45;;
60292;SDS011;52402;52.670;6.750;2023-04-25T06:10:23;9.35;;;2.58;;
60292;SDS011;52402;52.670;6.750;2023-04-25T06:12:57;7.25;;;2.38;;
60292;SDS011;52402;52.670;6.750;2023-04-25T06:15:25;8.52;;;2.30;;
60292;SDS011;52402;52.670;6.750;2023-04-25T06:17:55;10.07;;;2.72;;
60292;SDS011;52402;52.670;6.750;2023-04-25T06:20:29;7.53;;;2.28;;
60292;SDS011;52402;52.670;6.750;2023-04-25T06:22:56;8.23;;;2.05;;
60292;SDS011;52402;52.670;6.750;2023-04-25T06:25:27;7.47;;;2.30;;
60292;SDS011;52402;52.670;6.750;2023-04-25T06:28:16;8.07;;;2.63;;
60292;SDS011;52402;52.670;6.750;2023-04-25T06:33:39;8.93;;;2.05;;
60292;SDS011;52402;52.670;6.750;2023-04-25T06:36:10;7.40;;;1.88;;
60292;SDS011;52402;52.670;6.750;2023-04-25T06:38:49;9.63;;;2.50;;
60292;SDS011;52402;52.670;6.750;2023-04-25T06:44:16;9.48;;;2.20;;
60292;SDS011;52402;52.670;6.750;2023-04-25T06:46:41;6.45;;;1.80;;
60292;SDS011;52402;52.670;6.750;2023-04-25T06:49:30;6.75;;;1.95;;
60292;SDS011;52402;52.670;6.750;2023-04-25T06:59:25;8.13;;;1.90;;
60292;SDS011;52402;52.670;6.750;2023-04-25T07:02:00;9.65;;;2.55;;
60292;SDS011;52402;52.670;6.750;2023-04-25T07:04:34;7.28;;;2.33;;
60292;SDS011;52402;52.670;6.750;2023-04-25T07:07:04;5.68;;;1.60;;
60292;SDS011;52402;52.670;6.750;2023-04-25T07:09:35;8.48;;;1.80;;
60292;SDS011;52402;52.670;6.750;2023-04-25T07:12:07;6.70;;;1.95;;
60292;SDS011;52402;52.670;6.750;2023-04-25T07:14:40;7.60;;;1.50;;
60292;SDS011;52402;52.670;6.750;2023-04-25T07:17:10;6.07;;;1.50;;
60292;SDS011;52402;52.670;6.750;2023-04-25T07:19:40;5.97;;;1.73;;
60292;SDS011;52402;52.670;6.750;2023-04-25T07:22:08;5.30;;;1.20;;
60292;SDS011;52402;52.670;6.750;2023-04-25T07:24:36;3.80;;;1.23;;
60292;SDS011;52402;52.670;6.750;2023-04-25T07:27:02;6.50;;;1.27;;
60292;SDS011;52402;52.670;6.750;2023-04-25T07:29:30;5.35;;;1.80;;
60292;SDS011;52402;52.670;6.750;2023-04-25T07:32:03;5.30;;;1.58;;
60292;SDS011;52402;52.670;6.750;2023-04-25T07:34:31;6.95;;;1.50;;
60292;SDS011;52402;52.670;6.750;2023-04-25T07:37:02;8.27;;;1.63;;
60292;SDS011;52402;52.670;6.750;2023-04-25T07:39:37;4.93;;;1.02;;
60292;SDS011;52402;52.670;6.750;2023-04-25T07:42:05;9.43;;;1.67;;
60292;SDS011;52402;52.670;6.750;2023-04-25T07:44:38;6.53;;;1.52;;
60292;SDS011;52402;52.670;6.750;2023-04-25T07:47:09;10.82;;;1.70;;
60292;SDS011;52402;52.670;6.750;2023-04-25T07:49:38;7.45;;;1.55;;
60292;SDS011;52402;52.670;6.750;2023-04-25T07:52:09;7.82;;;1.73;;
60292;SDS011;52402;52.670;6.750;2023-04-25T07:57:02;5.22;;;1.52;;
60292;SDS011;52402;52.670;6.750;2023-04-25T07:59:30;5.15;;;1.35;;
60292;SDS011;52402;52.670;6.750;2023-04-25T08:02:01;4.53;;;1.50;;
60292;SDS011;52402;52.670;6.750;2023-04-25T08:04:27;3.67;;;1.30;;
60292;SDS011;52402;52.670;6.750;2023-04-25T08:06:58;4.95;;;1.20;;
60292;SDS011;52402;52.670;6.750;2023-04-25T08:09:32;5.90;;;1.70;;
60292;SDS011;52402;52.670;6.750;2023-04-25T08:12:06;4.25;;;1.63;;
60292;SDS011;52402;52.670;6.750;2023-04-25T08:14:47;6.40;;;1.33;;
60292;SDS011;52402;52.670;6.750;2023-04-25T08:17:25;4.13;;;1.55;;
60292;SDS011;52402;52.670;6.750;2023-04-25T08:21:01;5.13;;;1.02;;
60292;SDS011;52402;52.670;6.750;2023-04-25T08:23:40;4.45;;;1.10;;
60292;SDS011;52402;52.670;6.750;2023-04-25T08:26:08;5.05;;;1.10;;
60292;SDS011;52402;52.670;6.750;2023-04-25T08:28:39;4.07;;;1.00;;
60292;SDS011;52402;52.670;6.750;2023-04-25T08:31:16;4.20;;;1.27;;
60292;SDS011;52402;52.670;6.750;2023-04-25T08:33:51;7.40;;;1.67;;
60292;SDS011;52402;52.670;6.750;2023-04-25T08:36:38;2.63;;;1.02;;
60292;SDS011;52402;52.670;6.750;2023-04-25T08:39:17;6.90;;;1.23;;
60292;SDS011;52402;52.670;6.750;2023-04-25T08:44:32;4.57;;;1.20;;
60292;SDS011;52402;52.670;6.750;2023-04-25T08:47:31;5.40;;;1.20;;
60292;SDS011;52402;52.670;6.750;2023-04-25T08:50:10;6.15;;;1.48;;
60292;SDS011;52402;52.670;6.750;2023-04-25T08:52:52;7.45;;;1.55;;
60292;SDS011;52402;52.670;6.750;2023-04-25T08:55:28;7.87;;;1.77;;
60292;SDS011;52402;52.670;6.750;2023-04-25T08:58:19;6.72;;;1.40;;
60292;SDS011;52402;52.670;6.750;2023-04-25T09:01:05;7.05;;;1.70;;
60292;SDS011;52402;52.670;6.750;2023-04-25T09:04:02;4.45;;;1.60;;
60292;SDS011;52402;52.670;6.750;2023-04-25T09:07:07;6.57;;;1.30;;
60292;SDS011;52402;52.670;6.750;2023-04-25T09:09:56;4.35;;;1.05;;
60292;SDS011;52402;52.670;6.750;2023-04-25T09:12:45;3.72;;;1.00;;
60292;SDS011;52402;52.670;6.750;2023-04-25T09:15:55;5.07;;;1.17;;
60292;SDS011;52402;52.670;6.750;2023-04-25T09:18:31;4.28;;;1.05;;
60292;SDS011;52402;52.670;6.750;2023-04-25T09:21:21;5.18;;;1.13;;
60292;SDS011;52402;52.670;6.750;2023-04-25T09:24:00;7.47;;;1.20;;
60292;SDS011;52402;52.670;6.750;2023-04-25T09:26:51;3.65;;;0.90;;
60292;SDS011;52402;52.670;6.750;2023-04-25T09:29:56;1.23;;;0.70;;
60292;SDS011;52402;52.670;6.750;2023-04-25T09:32:35;6.28;;;1.30;;
60292;SDS011;52402;52.670;6.750;2023-04-25T09:35:01;6.53;;;1.20;;
60292;SDS011;52402;52.670;6.750;2023-04-25T09:37:41;4.90;;;1.30;;
60292;SDS011;52402;52.670;6.750;2023-04-25T09:40:14;5.68;;;1.63;;
60292;SDS011;52402;52.670;6.750;2023-04-25T09:42:51;4.88;;;1.27;;
60292;SDS011;52402;52.670;6.750;2023-04-25T09:45:17;7.55;;;1.60;;
60292;SDS011;52402;52.670;6.750;2023-04-25T09:47:53;5.50;;;1.38;;
60292;SDS011;52402;52.670;6.750;2023-04-25T09:50:41;10.30;;;1.98;;
60292;SDS011;52402;52.670;6.750;2023-04-25T09:55:52;1.60;;;0.80;;
60292;SDS011;52402;52.670;6.750;2023-04-25T09:58:42;2.13;;;0.57;;
60292;SDS011;52402;52.670;6.750;2023-04-25T10:01:36;1.52;;;0.70;;
60292;SDS011;52402;52.670;6.750;2023-04-25T10:04:21;2.95;;;0.73;;
60292;SDS011;52402;52.670;6.750;2023-04-25T10:06:58;2.88;;;0.65;;
60292;SDS011;52402;52.670;6.750;2023-04-25T10:09:40;6.72;;;0.82;;
60292;SDS011;52402;52.670;6.750;2023-04-25T10:12:14;2.17;;;0.70;;
60292;SDS011;52402;52.670;6.750;2023-04-25T10:14:41;1.90;;;0.70;;
60292;SDS011;52402;52.670;6.750;2023-04-25T10:24:40;1.58;;;0.77;;
60292;SDS011;52402;52.670;6.750;2023-04-25T10:27:13;2.75;;;0.80;;
60292;SDS011;52402;52.670;6.750;2023-04-25T10:29:44;6.15;;;1.58;;
60292;SDS011;52402;52.670;6.750;2023-04-25T10:32:12;5.97;;;1.73;;
60292;SDS011;52402;52.670;6.750;2023-04-25T10:34:44;5.43;;;1.73;;
60292;SDS011;52402;52.670;6.750;2023-04-25T10:37:15;7.63;;;2.22;;
60292;SDS011;52402;52.670;6.750;2023-04-25T10:39:43;7.45;;;1.98;;
60292;SDS011;52402;52.670;6.750;2023-04-25T10:42:14;8.10;;;1.60;;
60292;SDS011;52402;52.670;6.750;2023-04-25T10:44:47;7.30;;;2.25;;
60292;SDS011;52402;52.670;6.750;2023-04-25T10:47:38;7.38;;;1.77;;
60292;SDS011;52402;52.670;6.750;2023-04-25T10:50:17;5.88;;;1.88;;
60292;SDS011;52402;52.670;6.750;2023-04-25T10:52:47;4.43;;;1.77;;
60292;SDS011;52402;52.670;6.750;2023-04-25T10:55:15;5.05;;;1.50;;
60292;SDS011;52402;52.670;6.750;2023-04-25T10:57:45;4.57;;;1.40;;
60292;SDS011;52402;52.670;6.750;2023-04-25T11:00:20;4.35;;;1.15;;
60292;SDS011;52402;52.670;6.750;2023-04-25T11:03:05;6.32;;;2.30;;
60292;SDS011;52402;52.670;6.750;2023-04-25T11:06:00;4.35;;;1.00;;
60292;SDS011;52402;52.670;6.750;2023-04-25T11:14:52;5.45;;;1.35;;
60292;SDS011;52402;52.670;6.750;2023-04-25T11:18:00;6.53;;;1.20;;
60292;SDS011;52402;52.670;6.750;2023-04-25T11:20:33;3.63;;;1.33;;
60292;SDS011;52402;52.670;6.750;2023-04-25T11:23:23;7.30;;;1.50;;
60292;SDS011;52402;52.670;6.750;2023-04-25T11:26:04;6.15;;;1.40;;
60292;SDS011;52402;52.670;6.750;2023-04-25T11:28:42;6.20;;;1.83;;
60292;SDS011;52402;52.670;6.750;2023-04-25T11:31:45;4.68;;;1.73;;
60292;SDS011;52402;52.670;6.750;2023-04-25T11:34:16;3.92;;;1.13;;
60292;SDS011;52402;52.670;6.750;2023-04-25T11:36:47;5.80;;;1.42;;
60292;SDS011;52402;52.670;6.750;2023-04-25T11:42:19;4.20;;;1.00;;
60292;SDS011;52402;52.670;6.750;2023-04-25T11:44:53;8.85;;;1.45;;
60292;SDS011;52402;52.670;6.750;2023-04-25T11:47:30;3.40;;;1.20;;
60292;SDS011;52402;52.670;6.750;2023-04-25T11:50:01;4.15;;;1.35;;
60292;SDS011;52402;52.670;6.750;2023-04-25T11:55:40;2.70;;;1.00;;
60292;SDS011;52402;52.670;6.750;2023-04-25T11:58:24;2.83;;;1.10;;
60292;SDS011;52402;52.670;6.750;2023-04-25T12:07:05;5.85;;;1.50;;
60292;SDS011;52402;52.670;6.750;2023-04-25T12:09:40;4.35;;;1.00;;
60292;SDS011;52402;52.670;6.750;2023-04-25T12:12:22;8.65;;;1.98;;
60292;SDS011;52402;52.670;6.750;2023-04-25T12:18:27;4.78;;;1.35;;
60292;SDS011;52402;52.670;6.750;2023-04-25T12:21:00;6.03;;;1.50;;
60292;SDS011;52402;52.670;6.750;2023-04-25T12:23:47;5.05;;;1.55;;
60292;SDS011;52402;52.670;6.750;2023-04-25T12:29:54;7.70;;;1.90;;
60292;SDS011;52402;52.670;6.750;2023-04-25T12:32:51;6.78;;;1.70;;
60292;SDS011;52402;52.670;6.750;2023-04-25T12:35:31;7.20;;;1.60;;
60292;SDS011;52402;52.670;6.750;2023-04-25T12:41:07;6.57;;;1.50;;
60292;SDS011;52402;52.670;6.750;2023-04-25T12:43:59;5.97;;;1.35;;
60292;SDS011;52402;52.670;6.750;2023-04-25T12:46:34;7.22;;;1.70;;
60292;SDS011;52402;52.670;6.750;2023-04-25T12:49:09;7.18;;;1.80;;
60292;SDS011;52402;52.670;6.750;2023-04-25T12:51:41;8.18;;;1.73;;
60292;SDS011;52402;52.670;6.750;2023-04-25T12:54:14;5.10;;;1.60;;
60292;SDS011;52402;52.670;6.750;2023-04-25T12:57:22;7.60;;;1.97;;
60292;SDS011;52402;52.670;6.750;2023-04-25T12:59:54;6.18;;;1.63;;
60292;SDS011;52402;52.670;6.750;2023-04-25T13:02:22;4.38;;;1.35;;
60292;SDS011;52402;52.670;6.750;2023-04-25T13:05:13;6.07;;;1.65;;
60292;SDS011;52402;52.670;6.750;2023-04-25T13:07:52;4.90;;;1.40;;
60292;SDS011;52402;52.670;6.750;2023-04-25T13:13:27;4.70;;;1.45;;
60292;SDS011;52402;52.670;6.750;2023-04-25T13:16:14;5.32;;;1.60;;
60292;SDS011;52402;52.670;6.750;2023-04-25T13:21:55;6.03;;;1.63;;
60292;SDS011;52402;52.670;6.750;2023-04-25T13:24:25;5.47;;;1.55;;
60292;SDS011;52402;52.670;6.750;2023-04-25T13:30:08;6.05;;;1.55;;
60292;SDS011;52402;52.670;6.750;2023-04-25T13:33:01;7.15;;;1.73;;
60292;SDS011;52402;52.670;6.750;2023-04-25T13:41:56;4.65;;;1.30;;
60292;SDS011;52402;52.670;6.750;2023-04-25T13:44:40;5.30;;;1.52;;
60292;SDS011;52402;52.670;6.750;2023-04-25T13:47:12;4.57;;;1.10;;
60292;SDS011;52402;52.670;6.750;2023-04-25T13:49:43;4.75;;;1.60;;
60292;SDS011;52402;52.670;6.750;2023-04-25T13:52:20;5.40;;;1.30;;
60292;SDS011;52402;52.670;6.750;2023-04-25T13:54:53;5.78;;;1.30;;
60292;SDS011;52402;52.670;6.750;2023-04-25T13:57:23;4.95;;;1.40;;
60292;SDS011;52402;52.670;6.750;2023-04-25T14:00:05;6.10;;;1.65;;
60292;SDS011;52402;52.670;6.750;2023-04-25T14:02:46;6.15;;;1.50;;
60292;SDS011;52402;52.670;6.750;2023-04-25T14:08:10;5.28;;;1.40;;
60292;SDS011;52402;52.670;6.750;2023-04-25T14:10:41;5.38;;;1.30;;
60292;SDS011;52402;52.670;6.750;2023-04-25T14:13:16;7.45;;;1.73;;
60292;SDS011;52402;52.670;6.750;2023-04-25T14:15:55;4.65;;;1.45;;
60292;SDS011;52402;52.670;6.750;2023-04-25T14:18:23;5.53;;;1.40;;
60292;SDS011;52402;52.670;6.750;2023-04-25T14:23:49;5.85;;;1.52;;
60292;SDS011;52402;52.670;6.750;2023-04-25T14:26:37;7.00;;;1.80;;
60292;SDS011;52402;52.670;6.750;2023-04-25T14:31:56;6.75;;;1.65;;
60292;SDS011;52402;52.670;6.750;2023-04-25T14:34:26;4.88;;;1.33;;
60292;SDS011;52402;52.670;6.750;2023-04-25T14:36:59;5.97;;;1.50;;
60292;SDS011;52402;52.670;6.750;2023-04-25T14:39:33;8.73;;;1.80;;
60292;SDS011;52402;52.670;6.750;2023-04-25T14:42:09;6.35;;;1.50;;
60292;SDS011;52402;52.670;6.750;2023-04-25T14:44:49;9.88;;;1.35;;
60292;SDS011;52402;52.670;6.750;2023-04-25T14:47:19;3.03;;;0.90;;
60292;SDS011;52402;52.670;6.750;2023-04-25T14:49:58;4.75;;;1.10;;
60292;SDS011;52402;52.670;6.750;2023-04-25T14:52:47;4.22;;;1.05;;
60292;SDS011;52402;52.670;6.750;2023-04-25T14:58:10;2.75;;;0.90;;
60292;SDS011;52402;52.670;6.750;2023-04-25T15:00:49;3.15;;;1.00;;
60292;SDS011;52402;52.670;6.750;2023-04-25T15:03:19;7.65;;;1.67;;
60292;SDS011;52402;52.670;6.750;2023-04-25T15:05:48;4.88;;;1.45;;
60292;SDS011;52402;52.670;6.750;2023-04-25T15:08:35;4.22;;;1.50;;
60292;SDS011;52402;52.670;6.750;2023-04-25T15:11:05;5.82;;;1.30;;
60292;SDS011;52402;52.670;6.750;2023-04-25T15:13:38;6.20;;;1.30;;
60292;SDS011;52402;52.670;6.750;2023-04-25T15:16:06;5.22;;;1.50;;
60292;SDS011;52402;52.670;6.750;2023-04-25T15:21:12;4.78;;;1.55;;
60292;SDS011;52402;52.670;6.750;2023-04-25T15:23:40;2.45;;;1.08;;
60292;SDS011;52402;52.670;6.750;2023-04-25T15:26:10;7.60;;;1.70;;
60292;SDS011;52402;52.670;6.750;2023-04-25T15:28:41;4.25;;;1.25;;
60292;SDS011;52402;52.670;6.750;2023-04-25T15:31:08;6.53;;;2.08;;
60292;SDS011;52402;52.670;6.750;2023-04-25T15:33:38;6.75;;;1.50;;
60292;SDS011;52402;52.670;6.750;2023-04-25T15:36:12;7.45;;;2.20;;
60292;SDS011;52402;52.670;6.750;2023-04-25T15:38:45;8.07;;;2.10;;
60292;SDS011;52402;52.670;6.750;2023-04-25T15:41:16;7.75;;;2.05;;
60292;SDS011;52402;52.670;6.750;2023-04-25T15:43:55;5.53;;;2.10;;
60292;SDS011;52402;52.670;6.750;2023-04-25T15:46:32;8.50;;;1.90;;
60292;SDS011;52402;52.670;6.750;2023-04-25T15:49:00;11.93;;;6.30;;
60292;SDS011;52402;52.670;6.750;2023-04-25T15:51:32;6.50;;;2.90;;
60292;SDS011;52402;52.670;6.750;2023-04-25T15:54:03;6.60;;;1.90;;
60292;SDS011;52402;52.670;6.750;2023-04-25T15:56:37;9.48;;;1.90;;
60292;SDS011;52402;52.670;6.750;2023-04-25T15:59:05;9.02;;;1.77;;
60292;SDS011;52402;52.670;6.750;2023-04-25T16:01:33;7.07;;;1.75;;
60292;SDS011;52402;52.670;6.750;2023-04-25T16:04:06;5.93;;;1.55;;
60292;SDS011;52402;52.670;6.750;2023-04-25T16:06:40;6.97;;;1.70;;
60292;SDS011;52402;52.670;6.750;2023-04-25T16:09:11;6.45;;;1.55;;
60292;SDS011;52402;52.670;6.750;2023-04-25T16:11:39;6.47;;;1.42;;
60292;SDS011;52402;52.670;6.750;2023-04-25T16:14:08;5.13;;;1.45;;
60292;SDS011;52402;52.670;6.750;2023-04-25T16:16:38;5.78;;;1.70;;
60292;SDS011;52402;52.670;6.750;2023-04-25T16:19:08;5.03;;;1.40;;
60292;SDS011;52402;52.670;6.750;2023-04-25T16:21:39;4.70;;;1.40;;
60292;SDS011;52402;52.670;6.750;2023-04-25T16:24:09;3.55;;;1.23;;
60292;SDS011;52402;52.670;6.750;2023-04-25T16:26:39;5.13;;;1.30;;
60292;SDS011;52402;52.670;6.750;2023-04-25T16:29:07;3.50;;;1.15;;
60292;SDS011;52402;52.670;6.750;2023-04-25T16:31:41;7.30;;;1.58;;
60292;SDS011;52402;52.670;6.750;2023-04-25T16:34:12;5.28;;;1.45;;
60292;SDS011;52402;52.670;6.750;2023-04-25T16:36:42;7.82;;;1.30;;
60292;SDS011;52402;52.670;6.750;2023-04-25T16:39:12;7.32;;;1.77;;
60292;SDS011;52402;52.670;6.750;2023-04-25T16:41:43;6.30;;;1.52;;
60292;SDS011;52402;52.670;6.750;2023-04-25T16:44:08;7.78;;;1.60;;
60292;SDS011;52402;52.670;6.750;2023-04-25T16:46:39;7.95;;;2.22;;
60292;SDS011;52402;52.670;6.750;2023-04-25T16:49:07;8.15;;;2.28;;
60292;SDS011;52402;52.670;6.750;2023-04-25T16:51:40;10.10;;;2.13;;
60292;SDS011;52402;52.670;6.750;2023-04-25T16:56:51;7.43;;;1.90;;
60292;SDS011;52402;52.670;6.750;2023-04-25T16:59:24;7.78;;;1.98;;
60292;SDS011;52402;52.670;6.750;2023-04-25T17:01:52;7.97;;;1.60;;
60292;SDS011;52402;52.670;6.750;2023-04-25T17:04:24;5.50;;;1.63;;
60292;SDS011;52402;52.670;6.750;2023-04-25T17:06:52;6.65;;;2.03;;
60292;SDS011;52402;52.670;6.750;2023-04-25T17:09:20;6.10;;;1.75;;
60292;SDS011;52402;52.670;6.750;2023-04-25T17:11:50;7.22;;;1.67;;
60292;SDS011;52402;52.670;6.750;2023-04-25T17:14:22;7.70;;;1.98;;
60292;SDS011;52402;52.670;6.750;2023-04-25T17:16:58;8.27;;;2.00;;
60292;SDS011;52402;52.670;6.750;2023-04-25T17:19:30;9.70;;;2.15;;
60292;SDS011;52402;52.670;6.750;2023-04-25T17:22:03;5.70;;;1.70;;
60292;SDS011;52402;52.670;6.750;2023-04-25T17:24:33;7.40;;;2.10;;
60292;SDS011;52402;52.670;6.750;2023-04-25T17:27:05;6.50;;;1.88;;
60292;SDS011;52402;52.670;6.750;2023-04-25T17:29:38;10.88;;;2.00;;
60292;SDS011;52402;52.670;6.750;2023-04-25T17:32:07;8.07;;;1.65;;
60292;SDS011;52402;52.670;6.750;2023-04-25T17:34:37;6.88;;;1.90;;
60292;SDS011;52402;52.670;6.750;2023-04-25T17:37:13;8.43;;;2.10;;
60292;SDS011;52402;52.670;6.750;2023-04-25T17:39:44;7.13;;;1.58;;
60292;SDS011;52402;52.670;6.750;2023-04-25T17:42:13;7.13;;;1.65;;
60292;SDS011;52402;52.670;6.750;2023-04-25T17:44:45;8.88;;;1.98;;
60292;SDS011;52402;52.670;6.750;2023-04-25T17:47:16;7.40;;;2.17;;
60292;SDS011;52402;52.670;6.750;2023-04-25T17:49:44;6.22;;;1.83;;
60292;SDS011;52402;52.670;6.750;2023-04-25T17:52:12;5.03;;;1.20;;
60292;SDS011;52402;52.670;6.750;2023-04-25T17:54:42;6.15;;;1.45;;
60292;SDS011;52402;52.670;6.750;2023-04-25T17:57:15;5.57;;;1.10;;
60292;SDS011;52402;52.670;6.750;2023-04-25T17:59:48;4.82;;;1.23;;